sensor_id;sensor_type;location;lat;lon;timestamp;temperature;humidity
70807;DHT22;58882;52.170;5.386;2023-05-07T00:02:01;19.90;59.80
70807;DHT22;58882;52.170;5.386;2023-05-07T00:04:28;19.90;59.70
70807;DHT22;58882;52.170;5.386;2023-05-07T00:06:55;19.90;60.00
70807;DHT22;58882;52.170;5.386;2023-05-07T00:09:22;19.90;60.00
70807;DHT22;58882;52.170;5.386;2023-05-07T00:11:48;19.90;60.00
70807;DHT22;58882;52.170;5.386;2023-05-07T00:14:15;19.90;60.00
70807;DHT22;58882;52.170;5.386;2023-05-07T00:16:42;19.90;60.90
70807;DHT22;58882;52.170;5.386;2023-05-07T00:19:09;19.90;60.00
70807;DHT22;58882;52.170;5.386;2023-05-07T00:21:36;19.90;59.90
70807;DHT22;58882;52.170;5.386;2023-05-07T00:24:03;19.90;59.90
70807;DHT22;58882;52.170;5.386;2023-05-07T00:26:30;19.80;59.90
70807;DHT22;58882;52.170;5.386;2023-05-07T00:28:58;19.80;59.90
70807;DHT22;58882;52.170;5.386;2023-05-07T00:31:24;19.80;60.00
70807;DHT22;58882;52.170;5.386;2023-05-07T00:33:52;19.80;60.00
70807;DHT22;58882;52.170;5.386;2023-05-07T00:36:19;19.80;60.00
70807;DHT22;58882;52.170;5.386;2023-05-07T00:38:46;19.80;60.00
70807;DHT22;58882;52.170;5.386;2023-05-07T00:41:13;19.80;60.10
70807;DHT22;58882;52.170;5.386;2023-05-07T00:43:40;19.70;60.00
70807;DHT22;58882;52.170;5.386;2023-05-07T00:46:07;19.70;60.00
70807;DHT22;58882;52.170;5.386;2023-05-07T00:48:34;19.70;60.00
70807;DHT22;58882;52.170;5.386;2023-05-07T00:51:01;19.70;60.10
70807;DHT22;58882;52.170;5.386;2023-05-07T00:53:28;19.70;60.10
70807;DHT22;58882;52.170;5.386;2023-05-07T00:55:55;19.70;60.10
70807;DHT22;58882;52.170;5.386;2023-05-07T00:58:23;19.70;60.20
70807;DHT22;58882;52.170;5.386;2023-05-07T01:00:50;19.60;60.30
70807;DHT22;58882;52.170;5.386;2023-05-07T01:03:17;19.60;60.20
70807;DHT22;58882;52.170;5.386;2023-05-07T01:05:46;19.60;60.20
70807;DHT22;58882;52.170;5.386;2023-05-07T01:08:15;19.60;60.10
70807;DHT22;58882;52.170;5.386;2023-05-07T01:10:44;19.60;60.20
70807;DHT22;58882;52.170;5.386;2023-05-07T01:13:12;19.60;60.30
70807;DHT22;58882;52.170;5.386;2023-05-07T01:15:40;19.60;60.30
70807;DHT22;58882;52.170;5.386;2023-05-07T01:18:07;19.60;60.30
70807;DHT22;58882;52.170;5.386;2023-05-07T01:20:35;19.60;60.30
70807;DHT22;58882;52.170;5.386;2023-05-07T01:23:03;19.60;60.30
70807;DHT22;58882;52.170;5.386;2023-05-07T01:25:30;19.60;60.40
70807;DHT22;58882;52.170;5.386;2023-05-07T01:27:59;19.60;60.30
70807;DHT22;58882;52.170;5.386;2023-05-07T01:30:30;19.60;60.40
70807;DHT22;58882;52.170;5.386;2023-05-07T01:33:08;19.60;60.40
70807;DHT22;58882;52.170;5.386;2023-05-07T01:35:39;19.60;60.50
70807;DHT22;58882;52.170;5.386;2023-05-07T01:38:08;19.60;60.40
70807;DHT22;58882;52.170;5.386;2023-05-07T01:40:34;19.60;60.40
70807;DHT22;58882;52.170;5.386;2023-05-07T01:43:02;19.60;60.50
70807;DHT22;58882;52.170;5.386;2023-05-07T01:45:31;19.60;60.50
70807;DHT22;58882;52.170;5.386;2023-05-07T01:48:00;19.60;60.40
70807;DHT22;58882;52.170;5.386;2023-05-07T01:50:27;19.60;60.40
70807;DHT22;58882;52.170;5.386;2023-05-07T01:52:55;19.60;60.50
70807;DHT22;58882;52.170;5.386;2023-05-07T01:55:22;19.60;60.50
70807;DHT22;58882;52.170;5.386;2023-05-07T01:57:50;19.60;60.60
70807;DHT22;58882;52.170;5.386;2023-05-07T02:00:17;19.60;60.60
70807;DHT22;58882;52.170;5.386;2023-05-07T02:02:45;19.60;60.60
70807;DHT22;58882;52.170;5.386;2023-05-07T02:05:48;19.50;60.60
70807;DHT22;58882;52.170;5.386;2023-05-07T02:08:26;19.60;60.50
70807;DHT22;58882;52.170;5.386;2023-05-07T02:10:53;19.60;60.60
70807;DHT22;58882;52.170;5.386;2023-05-07T02:13:20;19.50;60.50
70807;DHT22;58882;52.170;5.386;2023-05-07T02:15:49;19.60;60.60
70807;DHT22;58882;52.170;5.386;2023-05-07T02:18:17;19.50;60.60
70807;DHT22;58882;52.170;5.386;2023-05-07T02:20:44;19.60;60.80
70807;DHT22;58882;52.170;5.386;2023-05-07T02:23:11;19.50;60.70
70807;DHT22;58882;52.170;5.386;2023-05-07T02:25:38;19.50;60.70
70807;DHT22;58882;52.170;5.386;2023-05-07T02:28:05;19.50;60.70
70807;DHT22;58882;52.170;5.386;2023-05-07T02:30:57;19.50;60.70
70807;DHT22;58882;52.170;5.386;2023-05-07T02:33:29;19.50;60.50
70807;DHT22;58882;52.170;5.386;2023-05-07T02:35:56;19.50;60.50
70807;DHT22;58882;52.170;5.386;2023-05-07T02:38:23;19.50;60.60
70807;DHT22;58882;52.170;5.386;2023-05-07T02:40:50;19.50;60.70
70807;DHT22;58882;52.170;5.386;2023-05-07T02:43:17;19.50;60.70
70807;DHT22;58882;52.170;5.386;2023-05-07T02:45:46;19.50;60.70
70807;DHT22;58882;52.170;5.386;2023-05-07T02:48:14;19.50;60.70
70807;DHT22;58882;52.170;5.386;2023-05-07T02:50:41;19.50;60.80
70807;DHT22;58882;52.170;5.386;2023-05-07T02:53:10;19.50;60.90
70807;DHT22;58882;52.170;5.386;2023-05-07T02:55:37;19.50;61.00
70807;DHT22;58882;52.170;5.386;2023-05-07T02:58:03;19.50;60.90
70807;DHT22;58882;52.170;5.386;2023-05-07T03:00:33;19.50;60.90
70807;DHT22;58882;52.170;5.386;2023-05-07T03:03:12;19.50;60.80
70807;DHT22;58882;52.170;5.386;2023-05-07T03:05:39;19.40;60.80
70807;DHT22;58882;52.170;5.386;2023-05-07T03:08:06;19.40;60.90
70807;DHT22;58882;52.170;5.386;2023-05-07T03:10:33;19.40;61.00
70807;DHT22;58882;52.170;5.386;2023-05-07T03:13:00;19.50;61.10
70807;DHT22;58882;52.170;5.386;2023-05-07T03:15:28;19.40;61.00
70807;DHT22;58882;52.170;5.386;2023-05-07T03:17:55;19.50;61.10
70807;DHT22;58882;52.170;5.386;2023-05-07T03:20:22;19.50;61.00
70807;DHT22;58882;52.170;5.386;2023-05-07T03:22:49;19.40;61.00
70807;DHT22;58882;52.170;5.386;2023-05-07T03:25:15;19.50;61.10
70807;DHT22;58882;52.170;5.386;2023-05-07T03:27:42;19.40;61.10
70807;DHT22;58882;52.170;5.386;2023-05-07T03:30:10;19.50;61.20
70807;DHT22;58882;52.170;5.386;2023-05-07T03:32:38;19.50;61.20
70807;DHT22;58882;52.170;5.386;2023-05-07T03:35:08;19.50;61.20
70807;DHT22;58882;52.170;5.386;2023-05-07T03:37:35;19.40;61.10
70807;DHT22;58882;52.170;5.386;2023-05-07T03:40:02;19.40;61.10
70807;DHT22;58882;52.170;5.386;2023-05-07T03:42:34;19.40;61.10
70807;DHT22;58882;52.170;5.386;2023-05-07T03:45:01;19.40;61.20
70807;DHT22;58882;52.170;5.386;2023-05-07T03:47:29;19.40;61.20
70807;DHT22;58882;52.170;5.386;2023-05-07T03:49:56;19.50;61.20
70807;DHT22;58882;52.170;5.386;2023-05-07T03:52:23;19.40;61.10
70807;DHT22;58882;52.170;5.386;2023-05-07T03:54:55;19.40;61.10
70807;DHT22;58882;52.170;5.386;2023-05-07T03:57:21;19.40;61.00
70807;DHT22;58882;52.170;5.386;2023-05-07T03:59:48;19.40;61.10
70807;DHT22;58882;52.170;5.386;2023-05-07T04:02:15;19.40;61.10
70807;DHT22;58882;52.170;5.386;2023-05-07T04:04:42;19.40;61.10
70807;DHT22;58882;52.170;5.386;2023-05-07T04:07:09;19.40;61.10
70807;DHT22;58882;52.170;5.386;2023-05-07T04:09:40;19.40;61.00
70807;DHT22;58882;52.170;5.386;2023-05-07T04:12:07;19.40;61.10
70807;DHT22;58882;52.170;5.386;2023-05-07T04:14:34;19.40;61.00
70807;DHT22;58882;52.170;5.386;2023-05-07T04:17:01;19.40;60.90
70807;DHT22;58882;52.170;5.386;2023-05-07T04:19:30;19.40;60.90
70807;DHT22;58882;52.170;5.386;2023-05-07T04:21:57;19.40;61.00
70807;DHT22;58882;52.170;5.386;2023-05-07T04:24:24;19.40;61.00
70807;DHT22;58882;52.170;5.386;2023-05-07T04:26:51;19.40;60.90
70807;DHT22;58882;52.170;5.386;2023-05-07T04:29:20;19.40;60.90
70807;DHT22;58882;52.170;5.386;2023-05-07T04:31:47;19.40;60.90
70807;DHT22;58882;52.170;5.386;2023-05-07T04:34:14;19.40;60.90
70807;DHT22;58882;52.170;5.386;2023-05-07T04:36:42;19.40;60.90
70807;DHT22;58882;52.170;5.386;2023-05-07T04:39:11;19.40;61.00
70807;DHT22;58882;52.170;5.386;2023-05-07T04:41:40;19.40;60.80
70807;DHT22;58882;52.170;5.386;2023-05-07T04:44:08;19.40;60.80
70807;DHT22;58882;52.170;5.386;2023-05-07T04:46:35;19.40;60.70
70807;DHT22;58882;52.170;5.386;2023-05-07T04:49:03;19.40;60.70
70807;DHT22;58882;52.170;5.386;2023-05-07T04:51:30;19.40;60.70
70807;DHT22;58882;52.170;5.386;2023-05-07T04:53:59;19.40;60.50
70807;DHT22;58882;52.170;5.386;2023-05-07T04:56:29;19.40;60.50
70807;DHT22;58882;52.170;5.386;2023-05-07T04:58:57;19.40;60.50
70807;DHT22;58882;52.170;5.386;2023-05-07T05:01:24;19.40;60.30
70807;DHT22;58882;52.170;5.386;2023-05-07T05:03:51;19.40;60.40
70807;DHT22;58882;52.170;5.386;2023-05-07T05:06:19;19.40;60.50
70807;DHT22;58882;52.170;5.386;2023-05-07T05:08:46;19.40;60.60
70807;DHT22;58882;52.170;5.386;2023-05-07T05:11:13;19.40;60.60
70807;DHT22;58882;52.170;5.386;2023-05-07T05:13:40;19.40;60.60
70807;DHT22;58882;52.170;5.386;2023-05-07T05:16:13;19.40;60.70
70807;DHT22;58882;52.170;5.386;2023-05-07T05:18:40;19.40;60.70
70807;DHT22;58882;52.170;5.386;2023-05-07T05:21:09;19.40;60.70
70807;DHT22;58882;52.170;5.386;2023-05-07T05:23:36;19.40;60.70
70807;DHT22;58882;52.170;5.386;2023-05-07T05:26:03;19.40;60.80
70807;DHT22;58882;52.170;5.386;2023-05-07T05:28:32;19.40;60.70
70807;DHT22;58882;52.170;5.386;2023-05-07T05:30:59;19.40;60.60
70807;DHT22;58882;52.170;5.386;2023-05-07T05:33:29;19.40;60.70
70807;DHT22;58882;52.170;5.386;2023-05-07T05:36:01;19.40;60.70
70807;DHT22;58882;52.170;5.386;2023-05-07T05:38:28;19.40;60.80
70807;DHT22;58882;52.170;5.386;2023-05-07T05:40:55;19.40;60.80
70807;DHT22;58882;52.170;5.386;2023-05-07T05:43:23;19.40;60.80
70807;DHT22;58882;52.170;5.386;2023-05-07T05:45:50;19.40;60.80
70807;DHT22;58882;52.170;5.386;2023-05-07T05:48:17;19.40;60.80
70807;DHT22;58882;52.170;5.386;2023-05-07T05:50:44;19.40;60.80
70807;DHT22;58882;52.170;5.386;2023-05-07T05:53:11;19.40;60.80
70807;DHT22;58882;52.170;5.386;2023-05-07T05:55:38;19.40;60.90
70807;DHT22;58882;52.170;5.386;2023-05-07T05:58:06;19.40;60.90
70807;DHT22;58882;52.170;5.386;2023-05-07T06:00:37;19.50;60.90
70807;DHT22;58882;52.170;5.386;2023-05-07T06:03:05;19.50;60.70
70807;DHT22;58882;52.170;5.386;2023-05-07T06:05:33;19.60;60.60
70807;DHT22;58882;52.170;5.386;2023-05-07T06:08:00;19.60;60.50
70807;DHT22;58882;52.170;5.386;2023-05-07T06:10:31;19.60;60.50
70807;DHT22;58882;52.170;5.386;2023-05-07T06:12:58;19.60;60.40
70807;DHT22;58882;52.170;5.386;2023-05-07T06:15:25;19.60;60.30
70807;DHT22;58882;52.170;5.386;2023-05-07T06:17:52;19.70;60.30
70807;DHT22;58882;52.170;5.386;2023-05-07T06:20:19;19.60;60.30
70807;DHT22;58882;52.170;5.386;2023-05-07T06:22:46;19.60;60.30
70807;DHT22;58882;52.170;5.386;2023-05-07T06:25:15;19.60;60.40
70807;DHT22;58882;52.170;5.386;2023-05-07T06:27:42;19.70;60.40
70807;DHT22;58882;52.170;5.386;2023-05-07T06:30:09;19.70;60.40
70807;DHT22;58882;52.170;5.386;2023-05-07T06:32:37;19.70;60.30
70807;DHT22;58882;52.170;5.386;2023-05-07T06:35:04;19.70;60.30
70807;DHT22;58882;52.170;5.386;2023-05-07T06:37:34;19.70;60.30
70807;DHT22;58882;52.170;5.386;2023-05-07T06:40:07;19.80;60.40
70807;DHT22;58882;52.170;5.386;2023-05-07T06:42:37;19.80;60.40
70807;DHT22;58882;52.170;5.386;2023-05-07T06:45:43;19.70;60.40
70807;DHT22;58882;52.170;5.386;2023-05-07T06:48:10;19.80;60.40
70807;DHT22;58882;52.170;5.386;2023-05-07T06:50:47;19.80;60.30
70807;DHT22;58882;52.170;5.386;2023-05-07T06:53:14;19.80;60.40
70807;DHT22;58882;52.170;5.386;2023-05-07T06:55:41;19.80;60.40
70807;DHT22;58882;52.170;5.386;2023-05-07T06:58:09;19.80;60.40
70807;DHT22;58882;52.170;5.386;2023-05-07T07:00:37;19.80;60.40
70807;DHT22;58882;52.170;5.386;2023-05-07T07:03:04;19.80;60.30
70807;DHT22;58882;52.170;5.386;2023-05-07T07:05:31;19.80;60.30
70807;DHT22;58882;52.170;5.386;2023-05-07T07:07:59;19.80;60.20
70807;DHT22;58882;52.170;5.386;2023-05-07T07:10:26;19.80;60.30
70807;DHT22;58882;52.170;5.386;2023-05-07T07:12:54;19.80;60.30
70807;DHT22;58882;52.170;5.386;2023-05-07T07:15:21;19.90;60.30
70807;DHT22;58882;52.170;5.386;2023-05-07T07:17:49;19.80;60.30
70807;DHT22;58882;52.170;5.386;2023-05-07T07:20:16;19.90;60.30
70807;DHT22;58882;52.170;5.386;2023-05-07T07:22:44;19.90;60.20
70807;DHT22;58882;52.170;5.386;2023-05-07T07:25:12;20.00;60.20
70807;DHT22;58882;52.170;5.386;2023-05-07T07:27:39;20.10;60.00
70807;DHT22;58882;52.170;5.386;2023-05-07T07:30:07;20.10;59.90
70807;DHT22;58882;52.170;5.386;2023-05-07T07:32:37;20.20;59.80
70807;DHT22;58882;52.170;5.386;2023-05-07T07:35:05;20.20;59.70
70807;DHT22;58882;52.170;5.386;2023-05-07T07:37:32;20.30;59.60
70807;DHT22;58882;52.170;5.386;2023-05-07T07:39:59;20.30;59.60
70807;DHT22;58882;52.170;5.386;2023-05-07T07:42:26;20.40;59.30
70807;DHT22;58882;52.170;5.386;2023-05-07T07:44:53;20.40;59.20
70807;DHT22;58882;52.170;5.386;2023-05-07T07:47:22;20.50;59.00
70807;DHT22;58882;52.170;5.386;2023-05-07T07:49:50;20.60;58.80
70807;DHT22;58882;52.170;5.386;2023-05-07T07:52:18;20.70;59.50
70807;DHT22;58882;52.170;5.386;2023-05-07T07:54:45;20.90;58.40
70807;DHT22;58882;52.170;5.386;2023-05-07T07:57:12;21.20;58.00
70807;DHT22;58882;52.170;5.386;2023-05-07T07:59:40;21.50;57.40
70807;DHT22;58882;52.170;5.386;2023-05-07T08:02:11;21.70;56.50
70807;DHT22;58882;52.170;5.386;2023-05-07T08:04:38;21.70;56.10
70807;DHT22;58882;52.170;5.386;2023-05-07T08:07:06;21.80;56.10
70807;DHT22;58882;52.170;5.386;2023-05-07T08:09:37;21.80;56.30
70807;DHT22;58882;52.170;5.386;2023-05-07T08:12:08;21.80;56.10
70807;DHT22;58882;52.170;5.386;2023-05-07T08:14:35;21.70;56.00
70807;DHT22;58882;52.170;5.386;2023-05-07T08:17:05;21.60;56.20
70807;DHT22;58882;52.170;5.386;2023-05-07T08:19:33;21.60;56.30
70807;DHT22;58882;52.170;5.386;2023-05-07T08:22:00;21.50;56.50
70807;DHT22;58882;52.170;5.386;2023-05-07T08:24:28;21.50;56.70
70807;DHT22;58882;52.170;5.386;2023-05-07T08:26:55;21.30;56.60
70807;DHT22;58882;52.170;5.386;2023-05-07T08:29:22;21.20;56.80
70807;DHT22;58882;52.170;5.386;2023-05-07T08:31:49;21.10;57.10
70807;DHT22;58882;52.170;5.386;2023-05-07T08:34:16;21.00;57.30
70807;DHT22;58882;52.170;5.386;2023-05-07T08:36:45;20.90;57.60
70807;DHT22;58882;52.170;5.386;2023-05-07T08:39:16;20.90;57.90
70807;DHT22;58882;52.170;5.386;2023-05-07T08:41:48;20.80;58.10
70807;DHT22;58882;52.170;5.386;2023-05-07T08:44:16;20.80;58.40
70807;DHT22;58882;52.170;5.386;2023-05-07T08:46:47;20.80;58.60
70807;DHT22;58882;52.170;5.386;2023-05-07T08:49:18;20.80;58.60
70807;DHT22;58882;52.170;5.386;2023-05-07T08:51:46;20.90;58.80
70807;DHT22;58882;52.170;5.386;2023-05-07T08:54:16;20.90;58.50
70807;DHT22;58882;52.170;5.386;2023-05-07T08:56:43;20.90;58.50
70807;DHT22;58882;52.170;5.386;2023-05-07T08:59:10;20.90;58.60
70807;DHT22;58882;52.170;5.386;2023-05-07T09:01:37;20.90;58.70
70807;DHT22;58882;52.170;5.386;2023-05-07T09:04:05;20.90;59.00
70807;DHT22;58882;52.170;5.386;2023-05-07T09:06:34;20.90;58.90
70807;DHT22;58882;52.170;5.386;2023-05-07T09:09:01;20.90;59.00
70807;DHT22;58882;52.170;5.386;2023-05-07T09:11:30;20.80;59.00
70807;DHT22;58882;52.170;5.386;2023-05-07T09:13:59;20.90;58.90
70807;DHT22;58882;52.170;5.386;2023-05-07T09:16:32;20.90;59.00
70807;DHT22;58882;52.170;5.386;2023-05-07T09:19:00;20.80;59.00
70807;DHT22;58882;52.170;5.386;2023-05-07T09:21:27;20.80;59.20
70807;DHT22;58882;52.170;5.386;2023-05-07T09:23:56;20.80;59.10
70807;DHT22;58882;52.170;5.386;2023-05-07T09:26:31;20.90;59.10
70807;DHT22;58882;52.170;5.386;2023-05-07T09:28:59;20.90;58.90
70807;DHT22;58882;52.170;5.386;2023-05-07T09:31:27;20.90;58.90
70807;DHT22;58882;52.170;5.386;2023-05-07T09:33:54;20.90;58.90
70807;DHT22;58882;52.170;5.386;2023-05-07T09:36:24;20.90;58.80
70807;DHT22;58882;52.170;5.386;2023-05-07T09:38:51;21.00;58.60
70807;DHT22;58882;52.170;5.386;2023-05-07T09:41:18;21.00;58.30
70807;DHT22;58882;52.170;5.386;2023-05-07T09:44:03;21.10;58.10
70807;DHT22;58882;52.170;5.386;2023-05-07T09:46:36;21.10;57.90
70807;DHT22;58882;52.170;5.386;2023-05-07T09:49:22;21.20;57.80
70807;DHT22;58882;52.170;5.386;2023-05-07T09:51:53;21.20;57.60
70807;DHT22;58882;52.170;5.386;2023-05-07T09:54:23;21.30;57.50
70807;DHT22;58882;52.170;5.386;2023-05-07T09:56:53;21.30;57.50
70807;DHT22;58882;52.170;5.386;2023-05-07T09:59:24;21.30;57.40
70807;DHT22;58882;52.170;5.386;2023-05-07T10:01:57;21.30;57.20
70807;DHT22;58882;52.170;5.386;2023-05-07T10:04:26;21.40;57.20
70807;DHT22;58882;52.170;5.386;2023-05-07T10:06:54;21.40;57.00
70807;DHT22;58882;52.170;5.386;2023-05-07T10:09:23;21.40;56.70
70807;DHT22;58882;52.170;5.386;2023-05-07T10:11:51;21.50;56.60
70807;DHT22;58882;52.170;5.386;2023-05-07T10:14:20;21.60;56.40
70807;DHT22;58882;52.170;5.386;2023-05-07T10:16:48;21.60;56.30
70807;DHT22;58882;52.170;5.386;2023-05-07T10:19:16;21.60;56.30
70807;DHT22;58882;52.170;5.386;2023-05-07T10:21:59;21.70;56.10
70807;DHT22;58882;52.170;5.386;2023-05-07T10:24:32;21.60;55.90
70807;DHT22;58882;52.170;5.386;2023-05-07T10:27:11;21.70;55.90
70807;DHT22;58882;52.170;5.386;2023-05-07T10:30:07;21.70;55.70
70807;DHT22;58882;52.170;5.386;2023-05-07T10:32:40;21.80;56.50
70807;DHT22;58882;52.170;5.386;2023-05-07T10:35:17;21.90;55.60
70807;DHT22;58882;52.170;5.386;2023-05-07T10:37:47;22.00;55.00
70807;DHT22;58882;52.170;5.386;2023-05-07T10:40:14;22.10;55.00
70807;DHT22;58882;52.170;5.386;2023-05-07T10:42:58;22.10;54.90
70807;DHT22;58882;52.170;5.386;2023-05-07T10:45:34;22.20;54.50
70807;DHT22;58882;52.170;5.386;2023-05-07T10:51:18;22.30;54.30
70807;DHT22;58882;52.170;5.386;2023-05-07T10:53:45;22.50;54.00
70807;DHT22;58882;52.170;5.386;2023-05-07T10:58:50;22.80;53.20
70807;DHT22;58882;52.170;5.386;2023-05-07T11:05:30;22.90;52.50
70807;DHT22;58882;52.170;5.386;2023-05-07T11:08:14;22.90;52.30
70807;DHT22;58882;52.170;5.386;2023-05-07T11:10:55;23.00;52.10
70807;DHT22;58882;52.170;5.386;2023-05-07T11:13:45;23.00;52.00
70807;DHT22;58882;52.170;5.386;2023-05-07T11:16:33;23.00;52.00
70807;DHT22;58882;52.170;5.386;2023-05-07T11:19:49;23.00;51.90
70807;DHT22;58882;52.170;5.386;2023-05-07T11:25:07;22.90;52.10
70807;DHT22;58882;52.170;5.386;2023-05-07T11:27:35;22.80;52.30
70807;DHT22;58882;52.170;5.386;2023-05-07T11:30:03;22.80;52.20
70807;DHT22;58882;52.170;5.386;2023-05-07T11:32:31;22.80;52.30
70807;DHT22;58882;52.170;5.386;2023-05-07T11:35:00;22.70;52.40
70807;DHT22;58882;52.170;5.386;2023-05-07T11:37:28;22.70;52.50
70807;DHT22;58882;52.170;5.386;2023-05-07T11:40:08;22.70;52.50
70807;DHT22;58882;52.170;5.386;2023-05-07T11:42:39;22.70;52.50
70807;DHT22;58882;52.170;5.386;2023-05-07T11:45:07;22.70;52.40
70807;DHT22;58882;52.170;5.386;2023-05-07T11:47:35;22.80;52.40
70807;DHT22;58882;52.170;5.386;2023-05-07T11:50:04;22.80;52.30
70807;DHT22;58882;52.170;5.386;2023-05-07T11:52:31;22.90;52.10
70807;DHT22;58882;52.170;5.386;2023-05-07T11:55:00;22.90;52.10
70807;DHT22;58882;52.170;5.386;2023-05-07T11:57:28;23.00;51.90
70807;DHT22;58882;52.170;5.386;2023-05-07T11:59:56;23.10;51.70
70807;DHT22;58882;52.170;5.386;2023-05-07T12:02:24;23.20;51.60
70807;DHT22;58882;52.170;5.386;2023-05-07T12:04:55;23.20;51.40
70807;DHT22;58882;52.170;5.386;2023-05-07T12:07:24;23.20;52.30
70807;DHT22;58882;52.170;5.386;2023-05-07T12:09:52;23.30;51.40
70807;DHT22;58882;52.170;5.386;2023-05-07T12:12:18;23.40;51.30
70807;DHT22;58882;52.170;5.386;2023-05-07T12:14:46;23.40;51.00
70807;DHT22;58882;52.170;5.386;2023-05-07T12:17:14;23.50;51.00
70807;DHT22;58882;52.170;5.386;2023-05-07T12:19:43;23.50;50.80
70807;DHT22;58882;52.170;5.386;2023-05-07T12:22:10;23.60;50.80
70807;DHT22;58882;52.170;5.386;2023-05-07T12:24:48;23.60;50.60
70807;DHT22;58882;52.170;5.386;2023-05-07T12:27:16;23.70;50.50
70807;DHT22;58882;52.170;5.386;2023-05-07T12:29:45;23.70;50.40
70807;DHT22;58882;52.170;5.386;2023-05-07T12:32:16;23.80;50.40
70807;DHT22;58882;52.170;5.386;2023-05-07T12:34:44;23.90;50.20
70807;DHT22;58882;52.170;5.386;2023-05-07T12:37:12;23.90;50.10
70807;DHT22;58882;52.170;5.386;2023-05-07T12:39:49;24.00;50.10
70807;DHT22;58882;52.170;5.386;2023-05-07T12:42:19;24.00;49.90
70807;DHT22;58882;52.170;5.386;2023-05-07T12:44:50;24.10;49.80
70807;DHT22;58882;52.170;5.386;2023-05-07T12:47:17;24.10;50.70
70807;DHT22;58882;52.170;5.386;2023-05-07T12:49:44;24.10;49.70
70807;DHT22;58882;52.170;5.386;2023-05-07T12:52:12;24.10;49.80
70807;DHT22;58882;52.170;5.386;2023-05-07T12:54:39;24.10;50.00
70807;DHT22;58882;52.170;5.386;2023-05-07T12:57:08;24.10;49.90
70807;DHT22;58882;52.170;5.386;2023-05-07T12:59:37;24.10;49.80
70807;DHT22;58882;52.170;5.386;2023-05-07T13:02:04;24.10;49.90
70807;DHT22;58882;52.170;5.386;2023-05-07T13:04:32;24.10;49.90
70807;DHT22;58882;52.170;5.386;2023-05-07T13:06:59;24.10;50.10
70807;DHT22;58882;52.170;5.386;2023-05-07T13:09:26;24.00;50.10
70807;DHT22;58882;52.170;5.386;2023-05-07T13:11:55;23.90;50.20
70807;DHT22;58882;52.170;5.386;2023-05-07T13:14:22;23.90;50.30
70807;DHT22;58882;52.170;5.386;2023-05-07T13:16:49;23.90;50.40
70807;DHT22;58882;52.170;5.386;2023-05-07T13:19:16;23.90;50.80
70807;DHT22;58882;52.170;5.386;2023-05-07T13:21:43;23.90;50.80
70807;DHT22;58882;52.170;5.386;2023-05-07T13:24:10;23.90;50.70
70807;DHT22;58882;52.170;5.386;2023-05-07T13:26:37;23.90;50.60
70807;DHT22;58882;52.170;5.386;2023-05-07T13:29:04;23.90;50.60
70807;DHT22;58882;52.170;5.386;2023-05-07T13:31:31;23.90;50.60
70807;DHT22;58882;52.170;5.386;2023-05-07T13:33:58;23.90;50.60
70807;DHT22;58882;52.170;5.386;2023-05-07T13:36:25;23.90;50.50
70807;DHT22;58882;52.170;5.386;2023-05-07T13:38:51;23.80;50.50
70807;DHT22;58882;52.170;5.386;2023-05-07T13:41:18;23.80;50.40
70807;DHT22;58882;52.170;5.386;2023-05-07T13:43:45;23.80;50.40
70807;DHT22;58882;52.170;5.386;2023-05-07T13:46:12;23.80;50.40
70807;DHT22;58882;52.170;5.386;2023-05-07T13:48:39;23.80;50.40
70807;DHT22;58882;52.170;5.386;2023-05-07T13:51:06;23.80;50.40
70807;DHT22;58882;52.170;5.386;2023-05-07T13:53:33;23.70;50.50
70807;DHT22;58882;52.170;5.386;2023-05-07T13:56:00;23.70;50.50
70807;DHT22;58882;52.170;5.386;2023-05-07T13:58:26;23.60;50.50
70807;DHT22;58882;52.170;5.386;2023-05-07T14:00:53;23.60;50.70
70807;DHT22;58882;52.170;5.386;2023-05-07T14:03:20;23.60;50.80
70807;DHT22;58882;52.170;5.386;2023-05-07T14:05:47;23.50;50.80
70807;DHT22;58882;52.170;5.386;2023-05-07T14:08:16;23.50;50.80
70807;DHT22;58882;52.170;5.386;2023-05-07T14:10:46;23.50;50.90
70807;DHT22;58882;52.170;5.386;2023-05-07T14:13:13;23.50;50.90
70807;DHT22;58882;52.170;5.386;2023-05-07T14:15:40;23.40;50.90
70807;DHT22;58882;52.170;5.386;2023-05-07T14:18:07;23.40;51.00
70807;DHT22;58882;52.170;5.386;2023-05-07T14:20:34;23.40;51.00
70807;DHT22;58882;52.170;5.386;2023-05-07T14:23:03;23.40;51.00
70807;DHT22;58882;52.170;5.386;2023-05-07T14:25:30;23.30;50.90
70807;DHT22;58882;52.170;5.386;2023-05-07T14:27:57;23.30;51.10
70807;DHT22;58882;52.170;5.386;2023-05-07T14:30:23;23.30;51.10
70807;DHT22;58882;52.170;5.386;2023-05-07T14:32:51;23.30;51.20
70807;DHT22;58882;52.170;5.386;2023-05-07T14:35:18;23.20;51.00
70807;DHT22;58882;52.170;5.386;2023-05-07T14:37:44;23.20;51.10
70807;DHT22;58882;52.170;5.386;2023-05-07T14:40:11;23.20;51.10
70807;DHT22;58882;52.170;5.386;2023-05-07T14:42:39;23.20;51.10
70807;DHT22;58882;52.170;5.386;2023-05-07T14:45:07;23.20;51.20
70807;DHT22;58882;52.170;5.386;2023-05-07T14:47:34;23.20;51.20
70807;DHT22;58882;52.170;5.386;2023-05-07T14:50:01;23.10;51.20
70807;DHT22;58882;52.170;5.386;2023-05-07T14:52:28;23.20;51.20
70807;DHT22;58882;52.170;5.386;2023-05-07T14:54:54;23.20;51.20
70807;DHT22;58882;52.170;5.386;2023-05-07T14:57:21;23.10;52.20
70807;DHT22;58882;52.170;5.386;2023-05-07T14:59:48;23.10;51.20
70807;DHT22;58882;52.170;5.386;2023-05-07T15:02:15;23.10;51.20
70807;DHT22;58882;52.170;5.386;2023-05-07T15:04:47;23.10;51.20
70807;DHT22;58882;52.170;5.386;2023-05-07T15:07:14;23.00;51.20
70807;DHT22;58882;52.170;5.386;2023-05-07T15:09:42;23.00;51.20
70807;DHT22;58882;52.170;5.386;2023-05-07T15:12:09;23.00;51.40
70807;DHT22;58882;52.170;5.386;2023-05-07T15:14:37;23.00;51.40
70807;DHT22;58882;52.170;5.386;2023-05-07T15:17:04;23.00;51.50
70807;DHT22;58882;52.170;5.386;2023-05-07T15:19:30;22.90;51.50
70807;DHT22;58882;52.170;5.386;2023-05-07T15:21:58;22.90;51.60
70807;DHT22;58882;52.170;5.386;2023-05-07T15:24:26;22.90;52.60
70807;DHT22;58882;52.170;5.386;2023-05-07T15:26:53;22.90;51.70
70807;DHT22;58882;52.170;5.386;2023-05-07T15:29:19;22.80;51.70
70807;DHT22;58882;52.170;5.386;2023-05-07T15:31:47;22.80;51.80
70807;DHT22;58882;52.170;5.386;2023-05-07T15:34:13;22.80;51.90
70807;DHT22;58882;52.170;5.386;2023-05-07T15:36:41;22.70;52.10
70807;DHT22;58882;52.170;5.386;2023-05-07T15:39:08;22.70;52.20
70807;DHT22;58882;52.170;5.386;2023-05-07T15:41:35;22.70;52.30
70807;DHT22;58882;52.170;5.386;2023-05-07T15:44:03;22.70;52.60
70807;DHT22;58882;52.170;5.386;2023-05-07T15:46:30;22.70;52.90
70807;DHT22;58882;52.170;5.386;2023-05-07T15:48:57;22.60;52.90
70807;DHT22;58882;52.170;5.386;2023-05-07T15:51:24;22.60;53.00
70807;DHT22;58882;52.170;5.386;2023-05-07T15:53:51;22.60;53.30